createdAt,value
2023-12-18T00:00:56.979Z,628.00
2023-12-18T00:01:56.894Z,629.00
2023-12-18T00:02:56.933Z,629.00
2023-12-18T00:03:56.983Z,630.00
2023-12-18T00:04:57.014Z,631.00
2023-12-18T00:05:56.931Z,626.00
2023-12-18T00:06:56.945Z,623.00
2023-12-18T00:07:56.949Z,628.00
2023-12-18T00:08:56.958Z,629.00
2023-12-18T00:09:56.954Z,628.00
2023-12-18T00:10:56.961Z,627.00
2023-12-18T00:11:56.987Z,630.00
2023-12-18T00:12:56.972Z,628.00
2023-12-18T00:13:56.995Z,627.00
2023-12-18T00:14:56.989Z,630.00
2023-12-18T00:15:57.053Z,626.00
2023-12-18T00:16:57.065Z,626.00
2023-12-18T00:17:57.195Z,626.00
2023-12-18T00:18:57.232Z,632.00
2023-12-18T00:19:57.070Z,631.00
2023-12-18T00:20:57.082Z,632.00
2023-12-18T00:21:57.158Z,627.00
2023-12-18T00:22:57.120Z,627.00
2023-12-18T00:23:57.097Z,629.00
2023-12-18T00:24:57.194Z,622.00
2023-12-18T00:25:57.129Z,626.00
2023-12-18T00:26:57.148Z,630.00
2023-12-18T00:27:57.185Z,629.00
2023-12-18T00:28:57.170Z,628.00
2023-12-18T00:29:57.163Z,627.00
2023-12-18T00:30:57.265Z,625.00
2023-12-18T00:31:57.194Z,626.00
2023-12-18T00:32:57.320Z,621.00
2023-12-18T00:33:57.350Z,623.00
2023-12-18T00:34:57.249Z,623.00
2023-12-18T00:35:57.232Z,629.00
2023-12-18T00:36:57.244Z,626.00
2023-12-18T00:37:57.264Z,623.00
2023-12-18T00:38:57.272Z,628.00
2023-12-18T00:39:57.272Z,628.00
2023-12-18T00:40:57.330Z,626.00
2023-12-18T00:41:57.355Z,628.00
2023-12-18T00:42:57.355Z,628.00
2023-12-18T00:43:58.224Z,625.00
2023-12-18T00:44:57.394Z,629.00
2023-12-18T00:45:57.407Z,626.00
2023-12-18T00:46:57.412Z,629.00
2023-12-18T00:47:57.410Z,625.00
2023-12-18T00:48:57.498Z,626.00
2023-12-18T00:49:57.542Z,626.00
2023-12-18T00:50:57.442Z,628.00
2023-12-18T00:51:57.450Z,624.00
2023-12-18T00:52:57.474Z,623.00
2023-12-18T00:53:57.462Z,626.00
2023-12-18T00:54:57.482Z,628.00
2023-12-18T00:55:57.543Z,626.00
2023-12-18T00:56:57.485Z,626.00
2023-12-18T00:57:57.670Z,628.00
2023-12-18T00:58:57.508Z,624.00
2023-12-18T00:59:57.508Z,627.00
2023-12-18T01:00:57.641Z,628.00
2023-12-18T01:01:57.526Z,629.00
2023-12-18T01:02:57.528Z,629.00
2023-12-18T01:03:57.677Z,627.00
2023-12-18T01:04:57.626Z,625.00
2023-12-18T01:05:57.541Z,626.00
2023-12-18T01:06:57.625Z,626.00
2023-12-18T01:07:57.573Z,622.00
2023-12-18T01:08:57.643Z,625.00
2023-12-18T01:09:57.645Z,623.00
2023-12-18T01:10:57.639Z,624.00
2023-12-18T01:11:57.676Z,624.00
2023-12-18T01:12:57.656Z,624.00
2023-12-18T01:13:57.664Z,625.00
2023-12-18T01:14:57.652Z,627.00
2023-12-18T01:15:57.676Z,625.00
2023-12-18T01:16:57.687Z,626.00
2023-12-18T01:17:57.719Z,622.00
2023-12-18T01:18:57.852Z,626.00
2023-12-18T01:19:57.880Z,628.00
2023-12-18T01:20:57.716Z,627.00
2023-12-18T01:21:57.716Z,621.00
2023-12-18T01:23:04.076Z,623.00
2023-12-18T01:23:58.748Z,623.00
2023-12-18T01:24:58.801Z,623.00
2023-12-18T01:25:57.733Z,624.00
2023-12-18T01:26:57.728Z,623.00
2023-12-18T01:27:57.749Z,625.00
2023-12-18T01:28:57.762Z,630.00
2023-12-18T01:29:57.768Z,625.00
2023-12-18T01:30:57.907Z,627.00
2023-12-18T01:31:57.789Z,625.00
2023-12-18T01:32:57.957Z,624.00
2023-12-18T01:33:57.885Z,628.00
2023-12-18T01:34:57.749Z,623.00
2023-12-18T01:35:57.766Z,623.00
2023-12-18T01:36:57.762Z,620.00
2023-12-18T01:37:58.760Z,627.00
2023-12-18T01:38:57.776Z,626.00
2023-12-18T01:39:57.787Z,625.00
2023-12-18T01:40:57.791Z,622.00
2023-12-18T01:41:57.797Z,622.00
2023-12-18T01:42:57.745Z,626.00
2023-12-18T01:43:57.753Z,622.00
2023-12-18T01:44:57.769Z,625.00
2023-12-18T01:45:57.824Z,627.00
2023-12-18T01:46:57.822Z,629.00
2023-12-18T01:47:57.874Z,628.00
2023-12-18T01:48:57.917Z,626.00
2023-12-18T01:49:57.751Z,622.00
2023-12-18T01:50:57.821Z,628.00
2023-12-18T01:51:57.860Z,625.00
2023-12-18T01:52:57.807Z,622.00
2023-12-18T01:53:57.787Z,625.00
2023-12-18T01:54:57.804Z,626.00
2023-12-18T01:55:57.818Z,624.00
2023-12-18T01:56:57.797Z,623.00
2023-12-18T01:57:57.816Z,625.00
2023-12-18T01:58:57.859Z,625.00
2023-12-18T01:59:57.806Z,627.00
2023-12-18T02:00:57.873Z,622.00
2023-12-18T02:01:57.821Z,627.00
2023-12-18T02:02:57.855Z,624.00
2023-12-18T02:03:58.009Z,627.00
2023-12-18T02:04:57.870Z,629.00
2023-12-18T02:05:57.941Z,623.00
2023-12-18T02:06:57.866Z,625.00
2023-12-18T02:07:57.946Z,623.00
2023-12-18T02:08:57.944Z,626.00
2023-12-18T02:09:57.940Z,620.00
2023-12-18T02:10:57.996Z,626.00
2023-12-18T02:11:57.998Z,622.00
2023-12-18T02:12:57.953Z,623.00
2023-12-18T02:13:57.987Z,623.00
2023-12-18T02:14:57.940Z,625.00
2023-12-18T02:15:58.108Z,622.00
2023-12-18T02:16:58.051Z,623.00
2023-12-18T02:17:58.030Z,622.00
2023-12-18T02:18:58.070Z,623.00
2023-12-18T02:19:58.007Z,624.00
2023-12-18T02:20:58.057Z,623.00
2023-12-18T02:21:58.185Z,626.00
2023-12-18T02:22:58.021Z,624.00
2023-12-18T02:23:58.101Z,625.00
2023-12-18T02:24:58.097Z,624.00
2023-12-18T02:25:58.091Z,624.00
2023-12-18T02:26:58.128Z,621.00
2023-12-18T02:27:58.100Z,624.00
2023-12-18T02:28:58.115Z,624.00
2023-12-18T02:29:58.219Z,625.00
2023-12-18T02:30:58.299Z,623.00
2023-12-18T02:31:58.205Z,620.00
2023-12-18T02:32:58.274Z,624.00
2023-12-18T02:33:58.383Z,621.00
2023-12-18T02:34:58.331Z,622.00
2023-12-18T02:35:58.233Z,626.00
2023-12-18T02:36:58.273Z,618.00
2023-12-18T02:37:58.281Z,622.00
2023-12-18T02:38:58.287Z,625.00
2023-12-18T02:39:58.318Z,623.00
2023-12-18T02:40:58.359Z,625.00
2023-12-18T02:41:58.359Z,620.00
2023-12-18T02:42:58.401Z,624.00
2023-12-18T02:43:58.388Z,621.00
2023-12-18T02:44:58.357Z,619.00
2023-12-18T02:45:58.428Z,623.00
2023-12-18T02:46:58.415Z,623.00
2023-12-18T02:47:58.441Z,622.00
2023-12-18T02:48:58.458Z,621.00
2023-12-18T02:49:58.474Z,619.00
2023-12-18T02:50:58.474Z,620.00
2023-12-18T02:51:58.509Z,622.00
2023-12-18T02:52:58.486Z,624.00
2023-12-18T02:53:58.514Z,625.00
2023-12-18T02:54:58.600Z,626.00
2023-12-18T02:55:58.504Z,621.00
2023-12-18T02:56:58.567Z,620.00
2023-12-18T02:57:58.621Z,625.00
2023-12-18T02:58:58.586Z,625.00
2023-12-18T02:59:58.594Z,622.00
2023-12-18T03:00:58.604Z,623.00
2023-12-18T03:01:58.604Z,622.00
2023-12-18T03:02:58.643Z,621.00
2023-12-18T03:03:58.730Z,623.00
2023-12-18T03:04:58.619Z,623.00
2023-12-18T03:05:58.685Z,622.00
2023-12-18T03:06:58.747Z,619.00
2023-12-18T03:07:58.687Z,620.00
2023-12-18T03:08:58.689Z,617.00
2023-12-18T03:09:58.686Z,621.00
2023-12-18T03:10:58.731Z,617.00
2023-12-18T03:11:58.783Z,623.00
2023-12-18T03:12:58.742Z,622.00
2023-12-18T03:13:58.825Z,620.00
2023-12-18T03:14:58.829Z,624.00
2023-12-18T03:15:58.805Z,623.00
2023-12-18T03:16:58.859Z,621.00
2023-12-18T03:17:58.899Z,622.00
2023-12-18T03:18:58.895Z,623.00
2023-12-18T03:19:58.824Z,623.00
2023-12-18T03:20:58.959Z,620.00
2023-12-18T03:21:58.906Z,623.00
2023-12-18T03:22:58.918Z,621.00
2023-12-18T03:23:58.966Z,621.00
2023-12-18T03:24:58.900Z,621.00
2023-12-18T03:25:58.972Z,623.00
2023-12-18T03:26:58.934Z,620.00
2023-12-18T03:27:59.003Z,622.00
2023-12-18T03:28:58.932Z,623.00
2023-12-18T03:29:59.002Z,622.00
2023-12-18T03:30:59.160Z,622.00
2023-12-18T03:31:59.011Z,622.00
2023-12-18T03:32:59.141Z,621.00
2023-12-18T03:33:59.189Z,624.00
2023-12-18T03:34:59.081Z,623.00
2023-12-18T03:35:59.077Z,624.00
2023-12-18T03:36:59.106Z,621.00
2023-12-18T03:37:59.096Z,622.00
2023-12-18T03:38:59.098Z,616.00
2023-12-18T03:39:59.228Z,621.00
2023-12-18T03:40:59.218Z,620.00
2023-12-18T03:41:59.162Z,620.00
2023-12-18T03:42:59.335Z,623.00
2023-12-18T03:43:59.248Z,624.00
2023-12-18T03:44:59.242Z,624.00
2023-12-18T03:45:59.252Z,620.00
2023-12-18T03:46:59.270Z,627.00
2023-12-18T03:47:59.333Z,622.00
2023-12-18T03:48:59.355Z,619.00
2023-12-18T03:49:59.349Z,621.00
2023-12-18T03:50:59.316Z,617.00
2023-12-18T03:51:59.362Z,621.00
2023-12-18T03:52:59.365Z,620.00
2023-12-18T03:53:59.410Z,617.00
2023-12-18T03:54:59.498Z,618.00
2023-12-18T03:55:59.448Z,621.00
2023-12-18T03:56:59.425Z,620.00
2023-12-18T03:57:59.434Z,620.00
2023-12-18T03:58:59.491Z,618.00
2023-12-18T03:59:59.460Z,619.00
2023-12-18T04:00:59.631Z,620.00
2023-12-18T04:01:59.532Z,621.00
2023-12-18T04:02:59.617Z,619.00
2023-12-18T04:03:59.641Z,622.00
2023-12-18T04:04:59.606Z,619.00
2023-12-18T04:05:59.620Z,619.00
2023-12-18T04:06:59.619Z,618.00
2023-12-18T04:07:59.607Z,616.00
2023-12-18T04:08:59.728Z,621.00
2023-12-18T04:09:59.692Z,618.00
2023-12-18T04:10:59.734Z,622.00
2023-12-18T04:11:59.769Z,617.00
2023-12-18T04:12:59.748Z,622.00
2023-12-18T04:13:59.755Z,620.00
2023-12-18T04:14:59.825Z,620.00
2023-12-18T04:16:00.935Z,625.00
2023-12-18T04:16:59.808Z,621.00
2023-12-18T04:17:59.927Z,619.00
2023-12-18T04:18:59.892Z,621.00
2023-12-18T04:19:59.832Z,619.00
2023-12-18T04:20:59.876Z,621.00
2023-12-18T04:21:59.881Z,621.00
2023-12-18T04:22:59.913Z,616.00
2023-12-18T04:23:59.890Z,619.00
2023-12-18T04:25:00.006Z,619.00
2023-12-18T04:26:00.016Z,617.00
2023-12-18T04:27:00.050Z,617.00
2023-12-18T04:27:59.989Z,619.00
2023-12-18T04:29:00.029Z,616.00
2023-12-18T04:30:00.114Z,619.00
2023-12-18T04:31:00.141Z,621.00
2023-12-18T04:32:00.049Z,618.00
2023-12-18T04:33:00.172Z,616.00
2023-12-18T04:34:07.616Z,600.00
2023-12-18T04:35:07.442Z,600.00
2023-12-18T04:36:07.484Z,600.00
2023-12-18T04:37:10.477Z,600.00
2023-12-18T04:38:07.531Z,600.00
2023-12-18T04:39:07.471Z,600.00
2023-12-18T04:40:07.476Z,600.00
2023-12-18T04:41:07.517Z,600.00
2023-12-18T04:42:07.452Z,600.00
2023-12-18T04:43:07.460Z,603.00
2023-12-18T04:44:07.477Z,604.00
2023-12-18T04:45:07.537Z,607.00
2023-12-18T04:46:07.487Z,604.00
2023-12-18T04:47:07.577Z,602.00
2023-12-18T04:48:07.756Z,601.00
2023-12-18T04:49:07.560Z,601.00
2023-12-18T04:50:07.614Z,604.00
2023-12-18T04:51:07.554Z,603.00
2023-12-18T04:52:07.544Z,605.00
2023-12-18T04:53:07.463Z,605.00
2023-12-18T04:54:07.520Z,603.00
2023-12-18T04:55:07.524Z,603.00
2023-12-18T04:56:07.599Z,605.00
2023-12-18T04:57:07.539Z,605.00
2023-12-18T04:58:07.521Z,606.00
2023-12-18T04:59:07.497Z,602.00
2023-12-18T05:00:07.560Z,601.00
2023-12-18T05:01:07.803Z,605.00
2023-12-18T05:02:07.529Z,605.00
2023-12-18T05:03:07.605Z,603.00
2023-12-18T05:04:07.517Z,603.00
2023-12-18T05:05:07.475Z,606.00
2023-12-18T05:06:07.649Z,606.00
2023-12-18T05:07:07.451Z,610.00
2023-12-18T05:08:07.511Z,603.00
2023-12-18T05:09:07.581Z,607.00
2023-12-18T05:10:07.501Z,602.00
2023-12-18T05:11:07.518Z,600.00
2023-12-18T05:12:07.528Z,605.00
2023-12-18T05:13:07.596Z,607.00
2023-12-18T05:14:07.552Z,605.00
2023-12-18T05:15:10.615Z,602.00
2023-12-18T05:16:07.528Z,602.00
2023-12-18T05:17:07.549Z,602.00
2023-12-18T05:18:07.657Z,603.00
2023-12-18T05:19:07.604Z,602.00
2023-12-18T05:20:07.671Z,602.00
2023-12-18T05:21:07.522Z,604.00
2023-12-18T05:22:07.619Z,600.00
2023-12-18T05:23:07.570Z,604.00
2023-12-18T05:24:07.566Z,604.00
2023-12-18T05:25:07.529Z,602.00
2023-12-18T05:26:07.585Z,603.00
2023-12-18T05:27:07.681Z,605.00
2023-12-18T05:28:07.585Z,605.00
2023-12-18T05:29:07.578Z,604.00
2023-12-18T05:30:07.636Z,600.00
2023-12-18T05:31:07.672Z,604.00
2023-12-18T05:32:07.641Z,602.00
2023-12-18T05:33:07.724Z,605.00
2023-12-18T05:34:07.645Z,605.00
2023-12-18T05:35:07.563Z,605.00
2023-12-18T05:36:07.570Z,604.00
2023-12-18T05:37:07.498Z,605.00
2023-12-18T05:38:07.551Z,602.00
2023-12-18T05:39:07.548Z,600.00
2023-12-18T05:40:07.523Z,604.00
2023-12-18T05:41:07.653Z,603.00
2023-12-18T05:42:09.445Z,603.00
2023-12-18T05:43:07.559Z,603.00
2023-12-18T05:44:07.505Z,606.00
2023-12-18T05:45:07.632Z,605.00
2023-12-18T05:46:07.690Z,605.00
2023-12-18T05:47:07.573Z,602.00
2023-12-18T05:48:07.696Z,600.00
2023-12-18T05:49:07.643Z,603.00
2023-12-18T05:50:07.602Z,605.00
2023-12-18T05:51:07.579Z,604.00
2023-12-18T05:52:07.623Z,604.00
2023-12-18T05:53:07.723Z,606.00
2023-12-18T05:54:07.626Z,603.00
2023-12-18T05:55:09.755Z,600.00
2023-12-18T05:56:07.584Z,602.00
2023-12-18T05:57:07.688Z,603.00
2023-12-18T05:58:07.697Z,608.00
2023-12-18T05:59:07.725Z,601.00
2023-12-18T06:00:07.771Z,604.00
2023-12-18T06:01:07.837Z,611.00
2023-12-18T06:02:07.792Z,615.00
2023-12-18T06:03:07.927Z,609.00
2023-12-18T06:04:07.813Z,613.00
2023-12-18T06:05:07.780Z,616.00
2023-12-18T06:06:07.875Z,618.00
2023-12-18T06:07:07.879Z,618.00
2023-12-18T06:08:07.925Z,623.00
2023-12-18T06:09:07.884Z,620.00
2023-12-18T06:10:07.945Z,621.00
2023-12-18T06:11:07.899Z,619.00
2023-12-18T06:12:07.960Z,622.00
2023-12-18T06:13:07.992Z,618.00
2023-12-18T06:14:07.976Z,615.00
2023-12-18T06:15:08.055Z,606.00
2023-12-18T06:16:07.979Z,610.00
2023-12-18T06:17:08.036Z,610.00
2023-12-18T06:18:08.142Z,610.00
2023-12-18T06:19:08.097Z,616.00
2023-12-18T06:20:08.034Z,613.00
2023-12-18T06:21:08.232Z,614.00
2023-12-18T06:22:08.051Z,615.00
2023-12-18T06:23:08.065Z,618.00
2023-12-18T06:24:08.118Z,615.00
2023-12-18T06:25:08.081Z,611.00
2023-12-18T06:26:08.078Z,608.00
2023-12-18T06:27:08.171Z,613.00
2023-12-18T06:28:08.085Z,619.00
2023-12-18T06:29:08.155Z,620.00
2023-12-18T06:30:08.233Z,627.00
2023-12-18T06:31:08.435Z,627.00
2023-12-18T06:32:09.303Z,626.00
2023-12-18T06:33:08.522Z,622.00
2023-12-18T06:34:08.399Z,620.00
2023-12-18T06:35:08.497Z,612.00
2023-12-18T06:36:08.307Z,612.00
2023-12-18T06:37:08.334Z,610.00
2023-12-18T06:38:09.295Z,611.00
2023-12-18T06:39:08.468Z,613.00
2023-12-18T06:40:08.526Z,614.00
2023-12-18T06:41:08.673Z,622.00
2023-12-18T06:42:08.895Z,629.00
2023-12-18T06:43:08.612Z,633.00
2023-12-18T06:44:08.580Z,633.00
2023-12-18T06:45:08.773Z,633.00
2023-12-18T06:46:08.696Z,632.00
2023-12-18T06:47:08.710Z,634.00
2023-12-18T06:48:09.940Z,643.00
2023-12-18T06:49:09.227Z,652.00
2023-12-18T06:50:08.994Z,655.00
2023-12-18T06:51:08.858Z,653.00
2023-12-18T06:52:08.760Z,658.00
2023-12-18T06:53:08.853Z,654.00
2023-12-18T06:54:08.997Z,656.00
2023-12-18T06:55:08.834Z,652.00
2023-12-18T06:56:08.769Z,662.00
2023-12-18T06:57:08.815Z,657.00
2023-12-18T06:58:08.892Z,658.00
2023-12-18T06:59:09.137Z,656.00
2023-12-18T07:00:08.881Z,656.00
2023-12-18T07:01:08.886Z,663.00
2023-12-18T07:02:08.805Z,658.00
2023-12-18T07:03:09.043Z,653.00
2023-12-18T07:04:08.972Z,662.00
2023-12-18T07:05:08.906Z,659.00
2023-12-18T07:06:08.854Z,655.00
2023-12-18T07:07:09.097Z,658.00
2023-12-18T07:08:08.856Z,658.00
2023-12-18T07:09:08.920Z,653.00
2023-12-18T07:10:09.015Z,652.00
2023-12-18T07:11:08.937Z,652.00
2023-12-18T07:12:08.858Z,654.00
2023-12-18T07:13:08.924Z,652.00
2023-12-18T07:14:08.933Z,651.00
2023-12-18T07:15:09.031Z,657.00
2023-12-18T07:16:08.947Z,655.00
2023-12-18T07:17:09.178Z,655.00
2023-12-18T07:18:09.237Z,659.00
2023-12-18T07:19:09.164Z,660.00
2023-12-18T07:20:09.238Z,657.00
2023-12-18T07:21:09.233Z,659.00
2023-12-18T07:22:09.287Z,660.00
2023-12-18T07:23:09.396Z,657.00
2023-12-18T07:24:09.429Z,666.00
2023-12-18T07:25:09.378Z,670.00
2023-12-18T07:26:09.421Z,669.00
2023-12-18T07:27:10.151Z,677.00
2023-12-18T07:28:10.209Z,677.00
2023-12-18T07:29:09.633Z,670.00
2023-12-18T07:30:10.095Z,677.00
2023-12-18T07:31:10.018Z,676.00
2023-12-18T07:32:09.837Z,669.00
2023-12-18T07:33:10.866Z,679.00
2023-12-18T07:34:10.281Z,679.00
2023-12-18T07:35:10.100Z,669.00
2023-12-18T07:36:10.187Z,672.00
2023-12-18T07:37:10.279Z,677.00
2023-12-18T07:38:10.255Z,672.00
2023-12-18T07:39:10.441Z,671.00
2023-12-18T07:40:10.741Z,686.00
2023-12-18T07:41:10.510Z,703.00
2023-12-18T07:42:10.560Z,693.00
2023-12-18T07:43:10.498Z,699.00
2023-12-18T07:44:10.530Z,691.00
2023-12-18T07:45:10.550Z,698.00
2023-12-18T07:46:10.545Z,706.00
2023-12-18T07:47:10.533Z,710.00
2023-12-18T07:48:14.463Z,737.00
2023-12-18T07:49:11.375Z,737.00
2023-12-18T07:50:11.312Z,739.00
2023-12-18T07:51:12.688Z,741.00
2023-12-18T07:52:10.773Z,742.00
2023-12-18T07:53:10.625Z,749.00
2023-12-18T07:54:10.545Z,735.00
2023-12-18T07:55:11.017Z,731.00
2023-12-18T07:56:10.709Z,732.00
2023-12-18T07:57:11.201Z,725.00
2023-12-18T07:58:11.369Z,730.00
2023-12-18T07:59:11.119Z,733.00
2023-12-18T08:00:17.128Z,737.00
2023-12-18T08:01:12.024Z,737.00
2023-12-18T08:02:11.268Z,737.00
2023-12-18T08:03:11.398Z,737.00
2023-12-18T08:04:11.097Z,742.00
2023-12-18T08:05:11.776Z,738.00
2023-12-18T08:06:10.940Z,740.00
2023-12-18T08:07:10.992Z,738.00
2023-12-18T08:08:16.148Z,737.00
2023-12-18T08:09:10.935Z,737.00
2023-12-18T08:10:11.277Z,737.00
2023-12-18T08:11:11.057Z,741.00
2023-12-18T08:12:11.146Z,738.00
2023-12-18T08:13:11.284Z,736.00
2023-12-18T08:14:11.178Z,753.00
2023-12-18T08:15:11.411Z,742.00
2023-12-18T08:16:11.317Z,745.00
2023-12-18T08:17:11.408Z,747.00
2023-12-18T08:18:12.963Z,739.00
2023-12-18T08:19:11.639Z,740.00
2023-12-18T08:20:12.219Z,745.00
2023-12-18T08:21:11.727Z,736.00
2023-12-18T08:22:11.958Z,748.00
2023-12-18T08:23:12.173Z,747.00
2023-12-18T08:24:12.016Z,742.00
2023-12-18T08:25:20.129Z,736.00
2023-12-18T08:26:11.942Z,736.00
2023-12-18T08:27:12.059Z,740.00
2023-12-18T08:28:12.786Z,744.00
2023-12-18T08:29:11.901Z,752.00
2023-12-18T08:30:12.029Z,761.00
2023-12-18T08:31:12.501Z,762.00
2023-12-18T08:32:12.011Z,759.00
2023-12-18T08:33:12.521Z,762.00
2023-12-18T08:34:12.354Z,755.00
2023-12-18T08:35:12.224Z,743.00
2023-12-18T08:36:12.040Z,748.00
2023-12-18T08:37:11.919Z,744.00
2023-12-18T08:38:11.935Z,735.00
2023-12-18T08:39:12.348Z,745.00
2023-12-18T08:40:11.938Z,740.00
2023-12-18T08:41:12.987Z,735.00
2023-12-18T08:42:12.137Z,751.00
2023-12-18T08:43:11.890Z,761.00
2023-12-18T08:44:12.104Z,772.00
2023-12-18T08:45:11.929Z,786.00
2023-12-18T08:46:37.384Z,784.00
2023-12-18T08:47:11.910Z,785.00
2023-12-18T08:48:14.863Z,789.00
2023-12-18T08:49:12.726Z,791.00
2023-12-18T08:50:12.938Z,798.00
2023-12-18T08:51:12.185Z,803.00
2023-12-18T08:52:14.412Z,820.00
2023-12-18T08:53:12.124Z,807.00
2023-12-18T08:54:12.197Z,806.00
2023-12-18T08:55:12.258Z,802.00
2023-12-18T08:56:13.270Z,808.00
2023-12-18T08:57:14.266Z,802.00
2023-12-18T08:58:12.589Z,790.00
2023-12-18T08:59:12.378Z,794.00
2023-12-18T09:00:12.695Z,796.00
2023-12-18T09:01:12.585Z,785.00
2023-12-18T09:02:12.956Z,788.00
2023-12-18T09:03:12.822Z,779.00
2023-12-18T09:04:12.616Z,771.00
2023-12-18T09:05:13.516Z,769.00
2023-12-18T09:06:12.664Z,750.00
2023-12-18T09:07:17.860Z,753.00
2023-12-18T09:08:16.416Z,754.00
2023-12-18T09:09:12.717Z,753.00
2023-12-18T09:10:12.627Z,753.00
2023-12-18T09:11:13.007Z,757.00
2023-12-18T09:12:15.203Z,756.00
2023-12-18T09:13:12.712Z,765.00
2023-12-18T09:14:13.611Z,759.00
2023-12-18T09:15:12.708Z,756.00
2023-12-18T09:16:12.692Z,752.00
2023-12-18T09:17:14.804Z,737.00
2023-12-18T09:18:12.848Z,737.00
2023-12-18T09:19:12.711Z,737.00
2023-12-18T09:20:12.962Z,733.00
2023-12-18T09:21:13.250Z,721.00
2023-12-18T09:22:13.197Z,712.00
2023-12-18T09:23:13.303Z,706.00
2023-12-18T09:24:12.679Z,719.00
2023-12-18T09:25:13.200Z,715.00
2023-12-18T09:26:12.877Z,717.00
2023-12-18T09:27:12.699Z,713.00
2023-12-18T09:28:12.717Z,700.00
2023-12-18T09:29:12.751Z,698.00
2023-12-18T09:30:12.810Z,699.00
2023-12-18T09:31:14.336Z,698.00
2023-12-18T09:32:12.908Z,701.00
2023-12-18T09:33:12.850Z,705.00
2023-12-18T09:34:12.866Z,707.00
2023-12-18T09:35:12.852Z,721.00
2023-12-18T09:36:12.852Z,738.00
2023-12-18T09:37:13.255Z,746.00
2023-12-18T09:38:12.787Z,743.00
2023-12-18T09:39:13.100Z,741.00
2023-12-18T09:40:12.799Z,745.00
2023-12-18T09:41:12.867Z,742.00
2023-12-18T09:42:16.367Z,746.00
2023-12-18T09:43:18.013Z,746.00
2023-12-18T09:44:15.682Z,746.00
2023-12-18T09:45:18.340Z,749.00
2023-12-18T09:46:13.946Z,747.00
2023-12-18T09:47:13.106Z,750.00
2023-12-18T09:48:15.738Z,757.00
2023-12-18T09:49:13.160Z,774.00
2023-12-18T09:50:19.992Z,794.00
2023-12-18T09:51:14.296Z,748.00
2023-12-18T09:52:13.049Z,753.00
2023-12-18T09:53:20.839Z,763.00
2023-12-18T09:54:14.303Z,748.00
2023-12-18T09:55:13.732Z,755.00
2023-12-18T09:56:15.961Z,769.00
2023-12-18T09:57:13.134Z,748.00
2023-12-18T09:58:13.237Z,755.00
2023-12-18T09:59:13.858Z,769.00
2023-12-18T10:00:17.029Z,783.00
2023-12-18T10:01:13.140Z,748.00
2023-12-18T10:02:13.123Z,754.00
2023-12-18T10:03:13.864Z,764.00
2023-12-18T10:04:15.360Z,777.00
2023-12-18T10:05:13.869Z,796.00
2023-12-18T10:06:15.417Z,789.00
2023-12-18T10:07:13.197Z,785.00
2023-12-18T10:08:13.198Z,791.00
2023-12-18T10:09:13.070Z,783.00
2023-12-18T10:10:17.612Z,778.00
2023-12-18T10:11:13.992Z,778.00
2023-12-18T10:12:13.114Z,777.00
2023-12-18T10:13:16.476Z,778.00
2023-12-18T10:14:13.458Z,778.00
2023-12-18T10:15:13.219Z,776.00
2023-12-18T10:16:21.405Z,776.00
2023-12-18T10:17:17.498Z,778.00
2023-12-18T10:18:18.484Z,778.00
2023-12-18T10:19:13.257Z,778.00
2023-12-18T10:20:14.720Z,780.00
2023-12-18T10:21:15.677Z,778.00
2023-12-18T10:22:13.075Z,778.00
2023-12-18T10:23:13.227Z,778.00
2023-12-18T10:24:14.169Z,773.00
2023-12-18T10:25:13.177Z,768.00
2023-12-18T10:26:13.321Z,769.00
2023-12-18T10:27:13.550Z,764.00
2023-12-18T10:28:13.325Z,776.00
2023-12-18T10:29:13.716Z,755.00
2023-12-18T10:30:16.160Z,750.00
2023-12-18T10:31:13.203Z,749.00
2023-12-18T10:32:13.125Z,731.00
2023-12-18T10:33:13.264Z,738.00
2023-12-18T10:34:13.136Z,749.00
2023-12-18T10:35:13.176Z,751.00
2023-12-18T10:36:14.416Z,771.00
2023-12-18T10:37:13.126Z,798.00
2023-12-18T10:38:13.086Z,837.00
2023-12-18T10:39:13.417Z,826.00
2023-12-18T10:40:13.115Z,833.00
2023-12-18T10:41:13.056Z,833.00
2023-12-18T10:42:13.227Z,841.00
2023-12-18T10:43:13.194Z,829.00
2023-12-18T10:44:13.146Z,820.00
2023-12-18T10:45:13.299Z,819.00
2023-12-18T10:46:13.585Z,808.00
2023-12-18T10:47:14.062Z,798.00
2023-12-18T10:48:13.187Z,808.00
2023-12-18T10:49:13.285Z,780.00
2023-12-18T10:50:13.173Z,760.00
2023-12-18T10:51:13.103Z,745.00
2023-12-18T10:52:13.081Z,754.00
2023-12-18T10:53:13.081Z,751.00
2023-12-18T10:54:13.135Z,744.00
2023-12-18T10:55:13.097Z,742.00
2023-12-18T10:56:13.319Z,745.00
2023-12-18T10:57:13.188Z,731.00
2023-12-18T10:58:13.090Z,729.00
2023-12-18T10:59:13.090Z,732.00
2023-12-18T11:00:13.136Z,727.00
2023-12-18T11:01:13.190Z,717.00
2023-12-18T11:02:13.108Z,719.00
2023-12-18T11:03:13.411Z,720.00
2023-12-18T11:04:13.199Z,710.00
2023-12-18T11:05:13.260Z,711.00
2023-12-18T11:06:13.628Z,723.00
2023-12-18T11:07:13.335Z,726.00
2023-12-18T11:08:13.472Z,728.00
2023-12-18T11:09:13.574Z,717.00
2023-12-18T11:10:13.576Z,710.00
2023-12-18T11:11:13.424Z,708.00
2023-12-18T11:12:13.484Z,702.00
2023-12-18T11:13:13.509Z,696.00
2023-12-18T11:14:13.550Z,696.00
2023-12-18T11:15:13.572Z,700.00
2023-12-18T11:16:13.810Z,694.00
2023-12-18T11:17:13.652Z,685.00
2023-12-18T11:18:13.844Z,684.00
2023-12-18T11:19:19.853Z,685.00
2023-12-18T11:20:14.892Z,685.00
2023-12-18T11:21:13.821Z,687.00
2023-12-18T11:22:13.806Z,683.00
2023-12-18T11:23:13.768Z,675.00
2023-12-18T11:24:13.807Z,682.00
2023-12-18T11:25:14.209Z,670.00
2023-12-18T11:26:14.268Z,676.00
2023-12-18T11:27:14.540Z,675.00
2023-12-18T11:28:14.109Z,686.00
2023-12-18T11:29:13.950Z,679.00
2023-12-18T11:30:14.022Z,683.00
2023-12-18T11:31:13.951Z,689.00
2023-12-18T11:32:13.874Z,682.00
2023-12-18T11:33:13.983Z,682.00
2023-12-18T11:34:14.075Z,688.00
2023-12-18T11:35:13.974Z,674.00
2023-12-18T11:36:14.046Z,663.00
2023-12-18T11:37:13.912Z,664.00
2023-12-18T11:38:13.885Z,663.00
2023-12-18T11:39:14.084Z,662.00
2023-12-18T11:40:13.930Z,662.00
2023-12-18T11:41:13.925Z,662.00
2023-12-18T11:42:14.032Z,663.00
2023-12-18T11:43:13.940Z,657.00
2023-12-18T11:44:13.982Z,657.00
2023-12-18T11:45:14.078Z,658.00
2023-12-18T11:46:17.764Z,660.00
2023-12-18T11:47:13.947Z,661.00
2023-12-18T11:48:14.123Z,662.00
2023-12-18T11:49:14.035Z,664.00
2023-12-18T11:50:14.093Z,672.00
2023-12-18T11:51:14.099Z,685.00
2023-12-18T11:52:14.009Z,682.00
2023-12-18T11:53:13.971Z,674.00
2023-12-18T11:54:14.118Z,662.00
2023-12-18T11:55:14.234Z,659.00
2023-12-18T11:56:14.363Z,657.00
2023-12-18T11:57:13.997Z,660.00
2023-12-18T11:58:13.997Z,660.00
2023-12-18T11:59:14.050Z,658.00
2023-12-18T12:00:14.307Z,663.00
2023-12-18T12:01:14.149Z,663.00
2023-12-18T12:02:14.007Z,669.00
2023-12-18T12:03:14.134Z,665.00
2023-12-18T12:04:14.174Z,671.00
2023-12-18T12:05:14.017Z,662.00
2023-12-18T12:06:14.469Z,655.00
2023-12-18T12:07:14.011Z,648.00
2023-12-18T12:08:13.990Z,650.00
2023-12-18T12:09:14.125Z,648.00
2023-12-18T12:10:14.100Z,648.00
2023-12-18T12:11:14.429Z,645.00
2023-12-18T12:12:14.030Z,651.00
2023-12-18T12:13:13.999Z,654.00
2023-12-18T12:14:13.982Z,651.00
2023-12-18T12:15:15.312Z,658.00
2023-12-18T12:16:14.028Z,658.00
2023-12-18T12:17:14.191Z,657.00
2023-12-18T12:18:14.092Z,649.00
2023-12-18T12:19:14.053Z,643.00
2023-12-18T12:20:14.291Z,639.00
2023-12-18T12:21:14.141Z,640.00
2023-12-18T12:22:14.024Z,639.00
2023-12-18T12:23:14.385Z,637.00
2023-12-18T12:24:14.045Z,638.00
2023-12-18T12:25:14.012Z,639.00
2023-12-18T12:26:14.158Z,643.00
2023-12-18T12:27:14.102Z,647.00
2023-12-18T12:28:14.072Z,648.00
2023-12-18T12:29:14.159Z,652.00